Impacts TAF Board
For situational awareness. Not to be used for flight planning purposes.
IDs:

KSAT - San Antonio Intl, TX, US

Issued at 2332 UTC 18 Aug 2019
Updated at 0529 UTC 19 Aug 2019
Potential Impact None Slight Moderate High
Time<<19/18Z 19/19Z 19/20Z 19/21Z 19/22Z 19/23Z 20/00Z 20/01Z 20/02Z 20/03Z 20/04Z 20/05Z 20/06Z>>
Type PRVL PRVL PRVL PRVL PRVL PRVL PRVL PRVL PRVL PRVL PRVL PRVL
VIS >6 >6 >6 >6 >6 >6 >6 >6 >6 >6 >6 >6
CIG -- -- -- -- -- -- -- -- -- -- -- --
Cover SCT SCT SCT SCT SCT SCT FEW FEW FEW FEW FEW FEW
FltCat VFR VFR VFR VFR VFR VFR VFR VFR VFR VFR VFR VFR
WX -- -- -- -- -- -- -- -- -- -- -- --
WDir 190 190 190 190 190 190 140 140 140 140 140 140
WSpd 10 10 10 10 10 10 9 9 9 9 9 9
WGst -- -- -- -- -- -- -- -- -- -- -- --
Raw TAF
KSAT 182332Z 1900/2006 14011KT P6SM FEW070
  FM190100 14013G23KT P6SM FEW250
  FM190800 16009KT P6SM BKN015 BKN025
  FM191500 19010KT P6SM SCT025
  FM200000 14009KT P6SM FEW070


METAR Board
Radar Display
Forecast Discussion
For situational awareness. Not to be used for flight planning purposes.